Time;durP1;ratioP1;P1;durP2;ratioP2;P2;SDS_P1;SDS_P2;PMS_P1;PMS_P2;Temp;Humidity;BMP_temperature;BMP_pressure;BME280_temperature;BME280_humidity;BME280_pressure;Samples;Min_cycle;Max_cycle;Signal;HPM_P1;HPM_P2
2022/03/26 00:01:51;;;;;;;105.57;58.80;;;7.60;99.90;;;;;;5114016;28;20185;-77
2022/03/26 00:04:17;;;;;;;103.70;57.72;;;7.50;99.90;;;;;;5091680;28;20814;-77
2022/03/26 00:06:43;;;;;;;108.85;58.80;;;7.50;99.90;;;;;;5091245;28;20062;-77
2022/03/26 00:09:09;;;;;;;103.80;58.03;;;7.40;99.90;;;;;;5094611;28;20043;-77
2022/03/26 00:11:35;;;;;;;110.80;59.55;;;7.40;99.90;;;;;;5095395;28;20051;-77
2022/03/26 00:14:00;;;;;;;108.60;59.63;;;7.30;99.90;;;;;;5095466;28;20406;-77
2022/03/26 00:16:26;;;;;;;;;;;7.30;99.90;;;;;;5095803;28;20056;-77
2022/03/26 00:18:52;;;;;;;;;;;7.30;99.90;;;;;;5095458;28;20266;-77
2022/03/26 00:21:17;;;;;;;;;;;7.20;99.90;;;;;;5095499;28;19926;-77
2022/03/26 00:23:43;;;;;;;;;;;7.20;99.90;;;;;;5095897;28;19920;-77
2022/03/26 00:26:10;;;;;;;;;;;7.20;99.90;;;;;;5094967;28;19919;-77
2022/03/26 00:28:37;;;;;;;;;;;7.20;99.90;;;;;;5095094;28;19964;-77
2022/03/26 00:31:06;;;;;;;;;;;7.10;99.90;;;;;;5095678;28;20286;-77
2022/03/26 00:33:32;;;;;;;;;;;7.10;99.90;;;;;;5095097;28;20018;-77
2022/03/26 00:35:57;;;;;;;;;;;7.10;99.90;;;;;;5095051;28;20019;-77
2022/03/26 00:38:23;;;;;;;;;;;7.00;99.90;;;;;;5095317;28;19924;-77
2022/03/26 00:40:49;;;;;;;;;;;7.00;99.90;;;;;;5112000;28;19919;-77
2022/03/26 00:43:14;;;;;;;;;;;7.00;99.90;;;;;;5113040;28;19924;-77
2022/03/26 00:45:42;;;;;;;117.20;60.33;;;7.00;99.90;;;;;;5077314;28;19920;-77
2022/03/26 00:48:07;;;;;;;123.20;64.07;;;7.00;99.90;;;;;;5120058;27;20043;-77
2022/03/26 00:50:34;;;;;;;116.60;60.35;;;6.90;99.90;;;;;;5133586;27;20645;-76
2022/03/26 00:52:59;;;;;;;120.38;62.83;;;6.90;99.90;;;;;;5114701;27;20043;-77
2022/03/26 00:55:25;;;;;;;125.40;65.50;;;6.90;99.90;;;;;;5133260;27;20473;-76
2022/03/26 00:57:51;;;;;;;118.18;62.30;;;6.90;99.90;;;;;;5115134;27;20057;-76
2022/03/26 01:00:17;;;;;;;119.75;61.45;;;6.90;99.90;;;;;;5132553;27;20571;-77
2022/03/26 01:02:42;;;;;;;127.13;63.72;;;6.90;99.90;;;;;;5133078;27;20047;-77
2022/03/26 01:05:10;;;;;;;130.55;65.63;;;6.90;99.90;;;;;;5132872;27;20073;-76
2022/03/26 01:07:36;;;;;;;145.02;68.15;;;6.80;99.90;;;;;;5115029;27;20085;-77
2022/03/26 01:10:04;;;;;;;138.52;67.10;;;6.80;99.90;;;;;;5132575;27;20485;-77
2022/03/26 01:12:30;;;;;;;130.18;64.28;;;6.80;99.90;;;;;;5114541;27;20058;-76
2022/03/26 01:14:56;;;;;;;131.10;65.30;;;6.80;99.90;;;;;;5114307;27;20051;-76
2022/03/26 01:17:22;;;;;;;133.23;69.05;;;6.70;99.90;;;;;;5114727;27;20435;-77
2022/03/26 01:19:49;;;;;;;134.88;67.78;;;6.60;99.90;;;;;;5113722;27;20051;-76
2022/03/26 01:22:15;;;;;;;149.07;70.35;;;6.60;99.90;;;;;;5132660;27;20420;-76
2022/03/26 01:24:41;;;;;;;142.65;71.05;;;6.50;99.90;;;;;;5132634;27;20058;-77
2022/03/26 01:27:07;;;;;;;148.30;71.72;;;6.50;99.90;;;;;;5132451;27;20046;-76
2022/03/26 01:29:33;;;;;;;155.57;74.43;;;6.50;99.90;;;;;;5132660;27;20049;-76
2022/03/26 01:31:59;;;;;;;189.30;100.93;;;6.50;99.90;;;;;;5112846;27;20406;-77
2022/03/26 01:34:26;;;;;;;191.17;101.73;;;6.40;99.90;;;;;;5112798;27;20395;-77
2022/03/26 01:36:52;;;;;;;158.63;77.15;;;6.30;99.90;;;;;;5113477;27;20051;-76
2022/03/26 01:39:20;;;;;;;149.82;74.95;;;6.30;99.90;;;;;;5132352;27;20054;-76
2022/03/26 01:41:47;;;;;;;155.77;72.28;;;6.30;99.90;;;;;;5132015;27;20059;-76
2022/03/26 01:44:13;;;;;;;149.10;70.40;;;6.30;99.90;;;;;;5132237;27;20055;-77
2022/03/26 01:46:51;;;;;;;145.68;69.50;;;6.20;99.90;;;;;;5096693;27;20047;-76
2022/03/26 01:49:17;;;;;;;149.48;68.43;;;6.20;99.90;;;;;;5113467;27;20058;-76
2022/03/26 01:51:43;;;;;;;147.50;71.68;;;6.10;99.90;;;;;;5132240;27;20390;-76
2022/03/26 01:54:09;;;;;;;152.52;70.00;;;6.00;99.90;;;;;;5131817;27;20043;-76
2022/03/26 01:56:35;;;;;;;141.23;65.15;;;6.00;99.90;;;;;;5113525;27;20050;-77
2022/03/26 01:59:01;;;;;;;145.60;69.65;;;6.00;99.90;;;;;;5131706;27;20043;-76
2022/03/26 02:01:27;;;;;;;154.00;69.63;;;6.00;99.90;;;;;;5113498;27;20043;-77
2022/03/26 02:03:52;;;;;;;152.82;69.68;;;6.00;99.90;;;;;;5131827;27;20089;-76
2022/03/26 02:06:19;;;;;;;141.32;70.30;;;6.00;99.90;;;;;;5131606;27;20049;-77
2022/03/26 02:08:45;;;;;;;143.88;67.80;;;6.00;99.90;;;;;;5131893;27;20417;-77
2022/03/26 02:11:11;;;;;;;139.45;66.60;;;6.00;99.90;;;;;;5131173;27;20039;-77
2022/03/26 02:13:54;;;;;;;154.77;88.75;;;6.00;99.90;;;;;;5111932;27;20754;-77
2022/03/26 02:16:21;;;;;;;141.90;73.07;;;6.00;99.90;;;;;;5113215;27;20047;-77
2022/03/26 02:18:48;;;;;;;138.70;68.57;;;6.00;99.90;;;;;;5113246;27;20403;-77
2022/03/26 02:21:14;;;;;;;135.13;66.40;;;6.00;99.90;;;;;;5113286;27;20516;-77
2022/03/26 02:23:40;;;;;;;132.10;65.10;;;6.00;99.90;;;;;;5131395;27;20043;-77
2022/03/26 02:26:05;;;;;;;135.57;64.78;;;6.00;99.90;;;;;;5131107;27;20421;-77
2022/03/26 02:28:32;;;;;;;134.35;64.65;;;6.00;99.90;;;;;;5131438;27;20039;-77
2022/03/26 02:30:57;;;;;;;135.70;64.63;;;6.00;99.90;;;;;;5111821;28;20088;-77
2022/03/26 02:33:23;;;;;;;138.50;66.88;;;6.00;99.90;;;;;;5112813;27;20447;-77
2022/03/26 02:35:49;;;;;;;144.30;65.80;;;5.90;99.90;;;;;;5112815;27;20439;-77
2022/03/26 02:38:14;;;;;;;143.43;66.78;;;5.90;99.90;;;;;;5113082;27;20475;-77
2022/03/26 02:40:40;;;;;;;137.63;66.20;;;5.80;99.90;;;;;;5112206;27;20540;-76
2022/03/26 02:43:05;;;;;;;;;;;5.80;99.90;;;;;;5113310;27;20081;-76
2022/03/26 02:45:32;;;;;;;;;;;5.80;99.90;;;;;;5113388;27;20415;-77
2022/03/26 02:47:58;;;;;;;144.45;66.28;;;5.70;99.90;;;;;;5092424;28;20328;-77
2022/03/26 02:50:24;;;;;;;143.55;68.30;;;5.70;99.90;;;;;;5091632;28;20047;-77
2022/03/26 02:52:50;;;;;;;141.00;66.47;;;5.70;99.90;;;;;;5092613;28;20361;-77
2022/03/26 02:55:17;;;;;;;147.02;67.88;;;5.70;99.90;;;;;;5074918;28;20142;-77
2022/03/26 02:57:46;;;;;;;144.40;66.72;;;5.70;99.90;;;;;;5110239;28;20047;-77
2022/03/26 03:00:14;;;;;;;142.13;66.32;;;5.70;99.90;;;;;;5091593;28;20047;-77
2022/03/26 03:02:41;;;;;;;139.57;65.72;;;5.70;99.90;;;;;;5091927;28;20044;-77
2022/03/26 03:05:07;;;;;;;133.70;63.58;;;5.70;99.90;;;;;;5110077;28;20059;-77
2022/03/26 03:07:32;;;;;;;145.50;64.68;;;5.70;99.90;;;;;;5109871;28;20734;-76
2022/03/26 03:09:58;;;;;;;141.75;68.75;;;5.70;99.90;;;;;;5109820;28;20047;-77
2022/03/26 03:12:28;;;;;;;140.75;65.10;;;5.70;99.90;;;;;;5110137;28;20047;-77
2022/03/26 03:14:54;;;;;;;136.40;65.93;;;5.70;99.90;;;;;;5110050;28;20051;-77
2022/03/26 03:17:19;;;;;;;137.07;64.20;;;5.60;99.90;;;;;;5091296;28;20043;-77
2022/03/26 03:19:45;;;;;;;173.70;93.22;;;5.60;99.90;;;;;;5089720;28;20391;-76
2022/03/26 03:22:11;;;;;;;141.75;70.20;;;5.60;99.90;;;;;;5108745;28;20040;-77
2022/03/26 03:24:37;;;;;;;141.90;69.00;;;5.60;99.90;;;;;;5108848;28;20082;-77
2022/03/26 03:27:03;;;;;;;144.68;67.22;;;5.60;99.90;;;;;;5108705;28;20040;-77
2022/03/26 03:29:29;;;;;;;138.40;65.47;;;5.60;99.90;;;;;;5108524;28;20382;-77
2022/03/26 03:31:55;;;;;;;139.95;66.05;;;5.60;99.90;;;;;;5109306;28;20046;-77
2022/03/26 03:34:21;;;;;;;158.30;71.30;;;5.60;99.90;;;;;;5096414;28;20052;-77
2022/03/26 03:36:46;;;;;;;154.18;68.15;;;5.60;99.90;;;;;;5107346;27;20104;-77
2022/03/26 03:39:12;;;;;;;141.45;64.93;;;5.50;99.90;;;;;;5107710;28;20130;-77
2022/03/26 03:41:38;;;;;;;153.18;72.10;;;5.50;99.90;;;;;;5093779;27;20421;-77
2022/03/26 03:44:04;;;;;;;138.80;64.03;;;5.50;99.90;;;;;;5110069;27;20047;-76
2022/03/26 03:46:30;;;;;;;171.40;73.60;;;5.50;99.90;;;;;;5129531;27;20058;-77
2022/03/26 03:48:56;;;;;;;159.68;70.93;;;5.40;99.90;;;;;;5129060;28;20401;-77
2022/03/26 03:51:22;;;;;;;160.65;72.57;;;5.40;99.90;;;;;;5097081;28;20478;-77
2022/03/26 03:53:48;;;;;;;168.02;72.70;;;5.40;99.90;;;;;;5108657;28;20039;-77
2022/03/26 03:56:13;;;;;;;159.13;72.68;;;5.30;99.90;;;;;;5089882;28;20151;-77
2022/03/26 03:58:39;;;;;;;163.48;70.82;;;5.30;99.90;;;;;;5108862;28;20039;-77
2022/03/26 04:01:04;;;;;;;167.18;73.15;;;5.30;99.90;;;;;;5089914;28;20383;-77
2022/03/26 04:03:30;;;;;;;175.77;74.00;;;5.30;99.90;;;;;;5090880;28;20049;-77
2022/03/26 04:05:58;;;;;;;162.52;70.63;;;5.30;99.90;;;;;;5090151;28;20044;-76
2022/03/26 04:08:24;;;;;;;160.57;72.25;;;5.30;99.90;;;;;;5103368;28;20126;-77
2022/03/26 04:10:49;;;;;;;166.85;74.75;;;5.40;99.90;;;;;;5110474;28;20146;-77
2022/03/26 04:13:15;;;;;;;162.77;71.25;;;5.30;99.90;;;;;;5110710;28;20116;-77
2022/03/26 04:15:40;;;;;;;160.77;70.28;;;5.30;99.90;;;;;;5110992;28;20047;-77
2022/03/26 04:18:06;;;;;;;147.55;67.82;;;5.30;99.90;;;;;;5110854;28;20048;-77
2022/03/26 04:20:33;;;;;;;152.88;70.10;;;5.30;99.90;;;;;;5128895;28;20047;-77
2022/03/26 04:22:59;;;;;;;140.18;65.50;;;5.30;99.90;;;;;;5128150;28;20501;-77
2022/03/26 04:25:24;;;;;;;146.30;67.28;;;5.30;99.90;;;;;;5110892;28;20051;-77
2022/03/26 04:27:50;;;;;;;159.00;71.70;;;5.30;99.90;;;;;;5110797;28;20120;-77
2022/03/26 04:30:16;;;;;;;170.52;75.70;;;5.30;99.90;;;;;;5128675;28;20054;-77
2022/03/26 04:32:42;;;;;;;182.07;76.03;;;5.30;99.90;;;;;;5110373;28;20142;-77
2022/03/26 04:35:09;;;;;;;188.88;79.72;;;5.40;99.90;;;;;;5110363;28;20382;-76
2022/03/26 04:37:35;;;;;;;186.80;82.70;;;5.40;99.90;;;;;;5110156;28;20058;-77
2022/03/26 04:40:05;;;;;;;187.35;81.47;;;5.40;99.90;;;;;;5110112;28;20039;-77
2022/03/26 04:42:31;;;;;;;186.52;80.13;;;5.40;99.90;;;;;;5089759;28;20044;-77
2022/03/26 04:44:57;;;;;;;185.77;79.32;;;5.40;99.90;;;;;;5072737;28;20092;-77
2022/03/26 04:47:22;;;;;;;192.82;81.13;;;5.50;99.90;;;;;;5073324;28;20044;-77
2022/03/26 04:49:48;;;;;;;187.40;80.32;;;5.40;99.90;;;;;;5089837;28;20044;-77
2022/03/26 04:52:13;;;;;;;196.60;82.50;;;5.50;99.90;;;;;;5089835;28;20081;-77
2022/03/26 04:54:41;;;;;;;200.35;81.40;;;5.50;99.90;;;;;;5091410;28;20048;-77
2022/03/26 04:57:07;;;;;;;192.05;82.43;;;5.50;99.90;;;;;;5092947;28;20712;-77
2022/03/26 04:59:32;;;;;;;195.38;83.95;;;5.50;99.90;;;;;;5093473;28;20154;-77
2022/03/26 05:01:58;;;;;;;197.02;82.90;;;5.50;99.90;;;;;;5093956;28;20478;-77
2022/03/26 05:04:24;;;;;;;195.73;83.68;;;5.50;99.90;;;;;;5093782;28;20424;-77
2022/03/26 05:06:50;;;;;;;204.20;83.43;;;5.50;99.90;;;;;;5093331;28;20055;-77
2022/03/26 05:09:15;;;;;;;202.95;83.93;;;5.50;99.90;;;;;;5092855;28;20043;-77
2022/03/26 05:11:42;;;;;;;198.65;82.57;;;5.50;99.90;;;;;;5093106;28;20039;-77
2022/03/26 05:14:08;;;;;;;192.05;78.95;;;5.50;99.90;;;;;;5092905;28;20103;-77
2022/03/26 05:16:34;;;;;;;181.27;79.88;;;5.50;99.90;;;;;;5092850;28;20043;-77
2022/03/26 05:19:00;;;;;;;194.15;80.38;;;5.40;99.90;;;;;;5093082;28;20477;-77
2022/03/26 05:21:26;;;;;;;193.73;80.18;;;5.40;99.90;;;;;;5092648;28;20297;-77
2022/03/26 05:23:51;;;;;;;208.57;84.75;;;5.40;99.90;;;;;;5092473;28;20053;-77
2022/03/26 05:26:21;;;;;;;208.77;87.82;;;5.50;99.90;;;;;;5110302;28;20472;-77
2022/03/26 05:28:46;;;;;;;209.38;83.85;;;5.50;99.90;;;;;;5093312;28;20237;-77
2022/03/26 05:31:12;;;;;;;216.27;87.50;;;5.50;99.90;;;;;;5092649;28;20119;-77
2022/03/26 05:33:38;;;;;;;210.20;83.35;;;5.50;99.90;;;;;;5111040;28;20105;-77
2022/03/26 05:36:04;;;;;;;212.90;85.80;;;5.50;99.90;;;;;;5092283;28;20367;-77
2022/03/26 05:38:31;;;;;;;204.55;84.35;;;5.50;99.90;;;;;;5093484;28;20081;-77
2022/03/26 05:40:57;;;;;;;229.30;87.28;;;5.50;99.90;;;;;;5092247;28;20082;-77
2022/03/26 05:43:23;;;;;;;221.88;86.28;;;5.50;99.90;;;;;;5092663;28;20520;-77
2022/03/26 05:45:50;;;;;;;228.05;86.20;;;5.60;99.90;;;;;;5092788;28;20058;-77
2022/03/26 05:48:17;;;;;;;219.80;84.07;;;5.60;99.90;;;;;;5092044;28;20127;-77
2022/03/26 05:50:44;;;;;;;228.48;84.18;;;5.60;99.90;;;;;;5110533;28;20044;-77
2022/03/26 05:53:10;;;;;;;197.32;83.38;;;5.60;99.90;;;;;;5092677;28;20052;-77
2022/03/26 05:55:36;;;;;;;192.20;79.50;;;5.50;99.90;;;;;;5110501;28;20042;-77
2022/03/26 05:58:02;;;;;;;207.27;82.30;;;5.50;99.90;;;;;;5092215;28;20051;-77
2022/03/26 06:00:28;;;;;;;207.80;82.07;;;5.50;99.90;;;;;;5110692;28;20067;-77
2022/03/26 06:02:53;;;;;;;197.18;80.90;;;5.50;99.90;;;;;;5092219;28;20035;-77
2022/03/26 06:05:19;;;;;;;204.38;80.47;;;5.60;99.90;;;;;;5092156;28;20036;-77
2022/03/26 06:07:45;;;;;;;205.52;83.63;;;5.60;99.90;;;;;;5092198;28;20042;-77
2022/03/26 06:10:10;;;;;;;189.70;79.35;;;5.50;99.90;;;;;;5110265;28;20051;-77
2022/03/26 06:12:36;;;;;;;189.60;78.05;;;5.60;99.90;;;;;;5092612;28;20046;-77
2022/03/26 06:15:03;;;;;;;189.50;74.85;;;5.60;99.90;;;;;;5092162;28;20081;-77
2022/03/26 06:17:30;;;;;;;177.05;72.13;;;5.50;99.90;;;;;;5110657;28;20047;-77
2022/03/26 06:19:56;;;;;;;165.98;70.97;;;5.50;99.90;;;;;;5091399;28;20055;-77
2022/03/26 06:22:21;;;;;;;170.48;69.25;;;5.50;99.90;;;;;;5092202;28;20410;-77
2022/03/26 06:24:47;;;;;;;157.85;67.45;;;5.50;99.90;;;;;;5091671;28;20040;-77
2022/03/26 06:27:12;;;;;;;144.07;62.85;;;5.50;99.90;;;;;;5091667;28;20130;-77
2022/03/26 06:29:38;;;;;;;151.75;63.20;;;5.50;99.90;;;;;;5091888;28;20040;-78
2022/03/26 06:32:04;;;;;;;155.07;65.18;;;5.50;99.90;;;;;;5091803;28;20101;-77
2022/03/26 06:34:30;;;;;;;141.43;62.28;;;5.50;99.90;;;;;;5109979;28;20409;-77
2022/03/26 06:36:56;;;;;;;150.90;64.60;;;5.50;99.90;;;;;;5074420;28;20039;-77
2022/03/26 06:39:21;;;;;;;159.90;67.05;;;5.50;99.90;;;;;;5091686;28;20048;-78
2022/03/26 06:41:47;;;;;;;146.45;65.60;;;5.60;99.90;;;;;;5087472;28;20052;-78
2022/03/26 06:44:13;;;;;;;156.50;69.40;;;5.60;99.90;;;;;;5089536;28;20051;-77
2022/03/26 06:46:40;;;;;;;164.75;68.25;;;5.70;99.90;;;;;;5088184;28;20426;-77
2022/03/26 06:49:10;;;;;;;159.73;68.75;;;5.70;99.90;;;;;;5070428;28;20040;-77
2022/03/26 06:51:37;;;;;;;159.63;67.53;;;5.80;99.90;;;;;;5088423;28;20190;-78
2022/03/26 06:54:03;;;;;;;161.52;68.57;;;5.90;99.90;;;;;;5089292;28;20086;-78
2022/03/26 06:56:28;;;;;;;160.50;71.35;;;6.00;99.90;;;;;;5087923;28;20048;-77
2022/03/26 06:58:55;;;;;;;169.27;69.47;;;6.10;99.90;;;;;;5089440;28;20047;-78
2022/03/26 07:01:20;;;;;;;160.00;70.45;;;6.20;99.90;;;;;;5088694;28;20081;-77
2022/03/26 07:03:47;;;;;;;149.90;69.15;;;6.30;99.90;;;;;;5089140;28;20048;-78
2022/03/26 07:06:15;;;;;;;153.82;71.35;;;6.40;99.90;;;;;;5088624;28;20169;-77
2022/03/26 07:08:41;;;;;;;172.55;92.43;;;6.50;99.90;;;;;;5086596;28;20907;-77
2022/03/26 07:11:07;;;;;;;151.20;72.47;;;6.50;99.90;;;;;;5087446;28;20052;-78
2022/03/26 07:13:32;;;;;;;143.27;68.10;;;6.60;99.90;;;;;;5087021;28;20037;-78
2022/03/26 07:15:58;;;;;;;148.00;70.18;;;6.70;99.90;;;;;;5088868;28;20043;-78
2022/03/26 07:18:24;;;;;;;148.13;70.40;;;6.70;99.90;;;;;;5088370;28;20815;-78
2022/03/26 07:20:51;;;;;;;154.45;68.70;;;6.90;99.90;;;;;;5088548;28;20383;-78
2022/03/26 07:23:17;;;;;;;150.27;71.07;;;7.00;99.90;;;;;;5087533;28;20055;-77
2022/03/26 07:25:43;;;;;;;152.70;86.72;;;7.10;99.90;;;;;;5086984;28;20448;-78
2022/03/26 07:28:09;;;;;;;152.52;87.95;;;7.20;99.90;;;;;;5085720;28;20410;-78
2022/03/26 07:30:34;;;;;;;144.48;86.40;;;7.30;99.90;;;;;;5087392;28;20418;-78
2022/03/26 07:33:01;;;;;;;131.75;66.88;;;7.30;99.90;;;;;;5088513;28;20040;-77
2022/03/26 07:35:27;;;;;;;;;;;7.40;99.90;;;;;;5089487;28;20145;-78
2022/03/26 07:37:52;;;;;;;;;;;7.50;99.90;;;;;;5087242;28;19994;-78
2022/03/26 07:40:18;;;;;;;;;;;7.50;99.90;;;;;;5089382;28;19975;-78
2022/03/26 07:42:43;;;;;;;;;;;7.60;99.90;;;;;;5124769;27;19919;-78
2022/03/26 07:45:09;;;;;;;;;;;7.60;99.90;;;;;;5129256;27;20409;-78
2022/03/26 07:47:38;;;;;;;123.80;61.15;;;7.70;99.90;;;;;;5111004;27;20494;-78
2022/03/26 07:50:06;;;;;;;129.93;62.60;;;7.80;99.90;;;;;;5110813;28;20054;-78
2022/03/26 07:52:31;;;;;;;130.20;64.35;;;7.90;99.90;;;;;;5129199;28;20051;-78
2022/03/26 07:54:57;;;;;;;125.32;61.17;;;8.00;99.90;;;;;;5129291;28;20093;-77
2022/03/26 07:57:23;;;;;;;124.38;60.47;;;8.10;99.90;;;;;;5129672;28;20498;-78
2022/03/26 07:59:48;;;;;;;122.60;61.78;;;8.20;99.90;;;;;;5110961;28;20043;-78
2022/03/26 08:02:14;;;;;;;115.07;59.78;;;8.30;99.90;;;;;;5128616;28;20047;-78
2022/03/26 08:04:40;;;;;;;124.33;75.97;;;8.50;99.90;;;;;;5128533;28;20879;-78
2022/03/26 08:07:06;;;;;;;111.85;61.72;;;8.60;99.90;;;;;;5129530;28;20043;-80
2022/03/26 08:09:32;;;;;;;102.72;57.08;;;8.70;99.90;;;;;;5094843;28;20047;-77
2022/03/26 08:11:57;;;;;;;103.57;56.70;;;8.90;99.90;;;;;;5111500;28;20046;-77
2022/03/26 08:14:23;;;;;;;108.47;58.72;;;9.00;99.90;;;;;;5129640;28;20103;-77
2022/03/26 08:16:49;;;;;;;104.57;57.20;;;9.10;99.90;;;;;;5111605;28;20067;-76
2022/03/26 08:19:14;;;;;;;105.10;68.37;;;9.20;99.90;;;;;;5092872;28;20461;-77
2022/03/26 08:21:40;;;;;;;103.30;67.90;;;9.40;99.90;;;;;;5103722;28;20496;-80
2022/03/26 08:24:06;;;;;;;92.32;61.17;;;9.50;99.90;;;;;;5097711;28;20502;-77
2022/03/26 08:26:32;;;;;;;86.88;52.75;;;9.60;99.90;;;;;;5129625;28;20039;-80
2022/03/26 08:29:00;;;;;;;86.95;50.63;;;9.70;99.90;;;;;;5111567;28;20035;-77
2022/03/26 08:31:28;;;;;;;95.72;54.25;;;9.80;99.90;;;;;;5093379;28;20043;-78
2022/03/26 08:33:54;;;;;;;95.53;52.75;;;10.00;99.90;;;;;;5112897;27;20406;-79
2022/03/26 08:36:20;;;;;;;83.20;49.28;;;10.00;99.90;;;;;;5112051;28;20059;-79
2022/03/26 08:38:47;;;;;;;81.53;47.75;;;10.20;99.90;;;;;;5112390;27;20059;-77
2022/03/26 08:41:21;;;;;;;81.70;47.53;;;10.20;99.90;;;;;;5099462;27;20394;-77
2022/03/26 08:43:49;;;;;;;;;;;10.40;99.90;;;;;;5103214;28;20039;-79
2022/03/26 08:46:15;;;;;;;70.60;41.40;;;10.50;99.90;;;;;;5123326;27;19937;-78
2022/03/26 08:48:40;;;;;;;70.32;39.63;;;10.60;99.90;;;;;;5096311;27;20040;-78
2022/03/26 08:51:06;;;;;;;67.18;46.30;;;10.80;99.90;;;;;;5113943;27;20836;-78
2022/03/26 08:53:32;;;;;;;63.63;45.83;;;10.90;99.90;;;;;;5099030;27;20574;-78
2022/03/26 08:55:58;;;;;;;59.75;43.10;;;11.00;99.90;;;;;;5097588;27;20946;-79
2022/03/26 08:58:24;;;;;;;59.58;42.92;;;11.20;99.90;;;;;;5095600;28;20404;-79
2022/03/26 09:00:51;;;;;;;55.35;39.83;;;11.30;99.90;;;;;;5083856;27;20586;-79
2022/03/26 09:03:21;;;;;;;53.17;40.55;;;11.40;99.90;;;;;;5114595;27;20427;-79
2022/03/26 09:05:51;;;;;;;50.93;36.50;;;11.50;99.90;;;;;;5110509;27;20427;-78
2022/03/26 09:08:17;;;;;;;42.67;31.60;;;11.70;99.90;;;;;;5122561;27;20429;-78
2022/03/26 09:10:43;;;;;;;41.00;30.63;;;11.80;99.90;;;;;;5128689;27;20391;-79
2022/03/26 09:13:10;;;;;;;37.15;28.25;;;11.90;99.90;;;;;;5117854;27;20413;-79
2022/03/26 09:15:36;;;;;;;39.15;27.08;;;12.00;99.90;;;;;;5115068;27;20861;-79
2022/03/26 09:18:02;;;;;;;38.25;28.98;;;12.10;99.90;;;;;;5100199;27;20765;-78
2022/03/26 09:20:28;;;;;;;37.13;29.17;;;12.30;99.90;;;;;;5129687;27;20440;-78
2022/03/26 09:22:54;;;;;;;39.58;30.15;;;12.40;99.90;;;;;;5130210;27;20825;-78
2022/03/26 09:25:20;;;;;;;41.03;31.07;;;12.90;99.90;;;;;;5084659;28;20535;-79
2022/03/26 09:27:47;;;;;;;34.65;28.05;;;13.80;99.90;;;;;;5076595;28;20481;-78
2022/03/26 09:30:14;;;;;;;32.60;25.15;;;14.80;99.90;;;;;;5110386;28;20397;-78
2022/03/26 09:32:41;;;;;;;31.58;25.02;;;15.60;99.90;;;;;;5095444;27;20952;-78
2022/03/26 09:35:07;;;;;;;32.47;25.60;;;16.10;99.90;;;;;;5129114;27;20961;-78
2022/03/26 09:37:32;;;;;;;30.67;23.73;;;16.60;99.90;;;;;;5109810;27;20442;-80
2022/03/26 09:39:58;;;;;;;24.30;19.10;;;17.20;99.90;;;;;;5091330;28;20767;-78
2022/03/26 09:42:24;;;;;;;21.63;18.27;;;17.50;98.90;;;;;;5109745;27;20774;-78
2022/03/26 09:44:51;;;;;;;25.10;19.00;;;17.80;97.80;;;;;;5091872;28;20959;-78
2022/03/26 09:47:17;;;;;;;23.70;18.20;;;18.00;96.40;;;;;;5112893;27;20415;-78
2022/03/26 09:49:43;;;;;;;;;;;18.20;95.90;;;;;;5131856;27;20066;-79
2022/03/26 09:52:08;;;;;;;;;;;18.50;94.60;;;;;;5114118;27;20370;-79
2022/03/26 09:54:36;;;;;;;;;;;18.70;93.90;;;;;;5113168;27;19920;-79
2022/03/26 09:57:02;;;;;;;;;;;18.90;93.30;;;;;;5111798;28;20416;-79
2022/03/26 09:59:28;;;;;;;;;;;19.10;93.10;;;;;;5118431;27;19973;-79
2022/03/26 10:01:53;;;;;;;;;;;19.20;91.30;;;;;;5132856;27;20434;-79
2022/03/26 10:04:21;;;;;;;;;;;19.40;90.80;;;;;;5119592;27;20260;-79
2022/03/26 10:06:54;;;;;;;;;;;19.40;90.20;;;;;;5111500;28;20318;-77
2022/03/26 10:09:36;;;;;;;;;;;19.70;90.70;;;;;;5111702;28;19920;-78
2022/03/26 10:12:11;;;;;;;;;;;19.80;87.80;;;;;;5111615;28;20388;-78
2022/03/26 10:14:41;;;;;;;;;;;19.70;85.70;;;;;;5111484;28;20337;-79
2022/03/26 10:17:09;;;;;;;;;;;19.80;84.80;;;;;;5111198;28;19924;-79
2022/03/26 10:19:35;;;;;;;;;;;19.90;83.90;;;;;;5111241;28;20443;-79
2022/03/26 10:22:01;;;;;;;;;;;20.00;83.00;;;;;;5111038;28;19920;-79
2022/03/26 10:24:26;;;;;;;;;;;20.10;82.10;;;;;;5111445;28;19977;-79
2022/03/26 10:26:52;;;;;;;;;;;20.30;81.00;;;;;;5093005;28;19920;-79
2022/03/26 10:29:17;;;;;;;;;;;20.40;79.80;;;;;;5111131;28;19976;-79
2022/03/26 10:34:27;;;;;;;;;;;20.70;79.60;;;;;;5092428;28;19923;-79
2022/03/26 10:36:56;;;;;;;;;;;20.60;77.20;;;;;;5111375;28;19927;-79
2022/03/26 10:39:27;;;;;;;7.13;5.35;;;20.40;78.80;;;;;;5109407;28;19920;-79
2022/03/26 10:41:53;;;;;;;;;;;20.70;77.90;;;;;;5100255;27;20058;-79
2022/03/26 10:44:22;;;;;;;;;;;21.00;77.20;;;;;;5112933;27;19919;-79
2022/03/26 10:46:51;;;;;;;;;;;21.10;75.10;;;;;;5096089;27;20047;-79
2022/03/26 10:49:26;;;;;;;;;;;21.10;73.20;;;;;;5112111;27;20312;-79
2022/03/26 10:51:53;;;;;;;;;;;21.10;72.10;;;;;;5127115;27;19928;-79
2022/03/26 10:54:19;;;;;;;;;;;21.20;72.40;;;;;;5114688;27;19928;-78
2022/03/26 10:56:44;;;;;;;;;;;21.30;72.00;;;;;;5131413;27;19931;-78
2022/03/26 10:59:10;;;;;;;;;;;21.20;71.00;;;;;;5111699;27;19928;-78
2022/03/26 11:01:36;;;;;;;;;;;20.90;71.10;;;;;;5131344;27;19931;-79
2022/03/26 11:04:02;;;;;;;;;;;20.40;71.60;;;;;;5111826;27;19924;-79
2022/03/26 11:06:28;;;;;;;;;;;19.80;71.50;;;;;;5111995;27;20014;-79
2022/03/26 11:09:00;;;;;;;;;;;19.30;73.80;;;;;;5110488;28;20002;-79
2022/03/26 11:11:28;;;;;;;;;;;18.80;74.10;;;;;;5110517;28;19927;-79
2022/03/26 11:14:01;;;;;;;;;;;18.60;75.70;;;;;;5127855;27;20344;-78
2022/03/26 11:16:36;;;;;;;;;;;18.40;77.00;;;;;;5130735;27;19953;-78
2022/03/26 11:19:24;;;;;;;;;;;18.30;77.70;;;;;;5111718;27;19923;-78
2022/03/26 11:22:02;;;;;;;;;;;18.30;77.80;;;;;;5098831;28;19930;-78
2022/03/26 11:24:41;;;;;;;;;;;18.40;78.40;;;;;;5109821;28;19931;-78
2022/03/26 11:27:15;;;;;;;;;;;18.40;78.60;;;;;;5109652;28;19959;-78
2022/03/26 11:29:50;;;;;;;;;;;18.40;79.00;;;;;;5096253;28;20392;-78
2022/03/26 11:32:26;;;;;;;;;;;18.40;78.60;;;;;;5112441;27;20444;-78
2022/03/26 11:35:03;;;;;;;;;;;18.30;78.30;;;;;;5108221;27;20505;-79
2022/03/26 11:37:28;;;;;;;;;;;18.00;78.70;;;;;;5119494;27;19969;-78
2022/03/26 11:39:57;;;;;;;;;;;17.90;80.60;;;;;;5093961;28;19932;-78
2022/03/26 11:42:23;;;;;;;;;;;17.90;81.30;;;;;;5129637;27;20011;-78
2022/03/26 11:50:41;;;;;;;;;;;17.90;81.10;;;;;;5124453;27;19935;-78
2022/03/26 11:50:41;;;;;;;;;;;17.30;82.10;;;;;;5120368;27;19971;-78
2022/03/26 11:53:07;;;;;;;;;;;17.10;83.30;;;;;;5108941;28;19934;-78
2022/03/26 11:55:40;;;;;;;;;;;16.90;84.30;;;;;;5109724;28;19923;-78
2022/03/26 11:58:12;;;;;;;;;;;16.80;85.40;;;;;;5109604;28;19928;-77
2022/03/26 12:00:51;;;;;;;;;;;16.80;86.40;;;;;;5091087;28;19931;-77
2022/03/26 12:03:21;;;;;;;9.95;6.28;;;16.70;86.70;;;;;;5091677;28;19927;-77
2022/03/26 12:08:38;;;;;;;10.07;6.18;;;16.60;87.50;;;;;;5113463;28;20060;-78
2022/03/26 12:11:04;;;;;;;10.38;5.95;;;16.50;88.10;;;;;;5112548;28;20413;-79
2022/03/26 12:13:32;;;;;;;8.23;5.85;;;16.50;88.40;;;;;;5117350;27;20042;-77
2022/03/26 12:16:03;;;;;;;9.57;5.97;;;16.40;89.10;;;;;;5130108;27;20503;-77
2022/03/26 12:18:36;;;;;;;9.35;5.93;;;16.40;90.00;;;;;;5129826;27;20055;-77
2022/03/26 12:21:48;;;;;;;9.02;5.90;;;16.30;90.00;;;;;;5099642;27;20038;-77
2022/03/26 12:24:17;;;;;;;9.27;6.38;;;16.30;90.20;;;;;;5106672;27;20055;-77
2022/03/26 12:26:50;;;;;;;9.13;6.38;;;16.30;90.40;;;;;;5108042;28;20043;-77
2022/03/26 12:29:16;;;;;;;;;;;16.30;90.60;;;;;;5096023;28;20060;-77
2022/03/26 12:31:42;;;;;;;9.68;5.78;;;16.30;90.80;;;;;;5097977;28;19979;-77
2022/03/26 12:34:07;;;;;;;9.60;5.45;;;16.40;91.10;;;;;;5095999;28;20546;-78
2022/03/26 12:36:34;;;;;;;9.82;4.95;;;16.50;91.50;;;;;;5107842;27;20043;-77
2022/03/26 12:39:00;;;;;;;9.35;5.10;;;16.70;91.30;;;;;;5096111;28;20131;-77
2022/03/26 12:41:26;;;;;;;8.63;5.10;;;17.10;91.10;;;;;;5110027;27;20126;-78
2022/03/26 12:44:00;;;;;;;12.90;5.75;;;17.30;90.80;;;;;;5094211;28;20062;-78
2022/03/26 12:46:34;;;;;;;7.80;5.40;;;17.60;90.60;;;;;;5094186;28;20555;-78
2022/03/26 12:49:05;;;;;;;8.55;5.40;;;17.80;90.30;;;;;;5093427;28;20431;-77
2022/03/26 12:51:31;;;;;;;9.38;5.53;;;18.10;90.00;;;;;;5094489;28;20066;-78
2022/03/26 12:53:58;;;;;;;8.60;5.93;;;18.40;89.80;;;;;;5105650;28;20424;-78
2022/03/26 12:56:24;;;;;;;7.82;4.90;;;18.80;89.50;;;;;;5094693;28;20127;-78
2022/03/26 12:58:59;;;;;;;8.70;5.38;;;18.80;87.60;;;;;;5094390;28;20438;-77